Terminal Aerodrome Forecast
Issued by NWS Grand Forks, ND

Home | Current Version | Previous Version | Graphics & Text | Print | Product List | Glossary On
Versions: 1 2 3 4 5 6 7 8 9 10 11 12 13 14 15 16 17
368
FTUS43 KFGF 290220 AAB
TAFFAR
TAF AMD
KFAR 290220Z 2902/2924 31004KT P6SM -RA BKN025
     FM290700 VRB03KT P6SM BKN015
     FM291600 30011KT P6SM FEW200=

USA.gov is the U.S. government's official web portal to all federal, state and local government web resources and services.